Time;durP1;ratioP1;P1;durP2;ratioP2;P2;SDS_P1;SDS_P2;PMS_P1;PMS_P2;Temp;Humidity;BMP_temperature;BMP_pressure;BME280_temperature;BME280_humidity;BME280_pressure;Samples;Min_cycle;Max_cycle;Signal;HPM_P1;HPM_P2
2023/10/25 00:00:28;;;;;;;0.17;0.17;;;;;;;11.33;73.79;100210.13;5079794;28;20055;-81
2023/10/25 00:02:55;;;;;;;0.10;0.10;;;;;;;11.29;73.71;100205.81;5080781;28;20056;-79
2023/10/25 00:05:21;;;;;;;0.30;0.30;;;;;;;11.24;73.81;100210.41;5074278;28;20032;-80
2023/10/25 00:07:47;;;;;;;0.10;0.10;;;;;;;11.19;73.74;100202.63;5082713;28;20024;-80
2023/10/25 00:14:03;;;;;;;0.20;0.20;;;;;;;11.19;73.29;100194.69;5082018;28;20044;-80
2023/10/25 00:16:29;;;;;;;0.10;0.10;;;;;;;11.06;73.79;100193.34;5077694;28;20095;-80
2023/10/25 00:18:55;;;;;;;0.20;0.20;;;;;;;11.02;73.81;100199.69;5077422;28;20029;-80
2023/10/25 00:21:21;;;;;;;0.10;0.10;;;;;;;10.98;74.00;100197.09;5084495;28;20046;-81
2023/10/25 00:23:47;;;;;;;0.85;0.85;;;;;;;10.95;74.25;100197.22;5072915;28;20028;-80
2023/10/25 00:26:13;;;;;;;0.30;0.30;;;;;;;10.95;73.72;100201.63;5087059;28;20065;-80
2023/10/25 00:28:40;;;;;;;0.20;0.20;;;;;;;10.92;73.88;100193.78;5091875;28;20032;-80
2023/10/25 00:31:06;;;;;;;0.20;0.20;;;;;;;10.89;74.53;100192.09;5082122;28;20486;-80
2023/10/25 00:33:32;;;;;;;0.10;0.10;;;;;;;10.88;74.58;100184.19;5082919;28;20044;-80
2023/10/25 00:35:58;;;;;;;0.20;0.20;;;;;;;10.87;74.37;100193.94;5079043;28;20028;-79
2023/10/25 00:38:24;;;;;;;0.10;0.10;;;;;;;10.88;74.39;100194.78;5093664;28;20020;-80
2023/10/25 00:40:50;;;;;;;0.10;0.10;;;;;;;10.84;74.29;100188.72;5079319;28;20033;-80
2023/10/25 00:43:20;;;;;;;0.20;0.20;;;;;;;10.82;74.41;100187.91;5091307;28;20571;-81
2023/10/25 00:46:26;;;;;;;0.32;0.32;;;;;;;10.86;74.78;100192.19;5084034;28;20025;-79
2023/10/25 00:48:56;;;;;;;0.73;0.73;;;;;;;10.77;74.78;100195.16;5086657;28;20043;-80
2023/10/25 00:51:23;;;;;;;1.38;0.63;;;;;;;10.72;75.17;100183.81;5085119;28;20037;-79
2023/10/25 00:53:52;;;;;;;0.20;0.20;;;;;;;10.72;75.22;100178.53;5081134;28;20033;-80
2023/10/25 00:56:24;;;;;;;0.10;0.10;;;;;;;10.74;74.61;100174.03;5085452;28;20040;-80
2023/10/25 00:58:55;;;;;;;0.20;0.20;;;;;;;10.73;75.27;100175.81;5090058;28;20077;-80
2023/10/25 01:01:23;;;;;;;0.10;0.10;;;;;;;10.73;74.94;100174.94;5086623;28;20025;-81
2023/10/25 01:03:50;;;;;;;0.32;0.32;;;;;;;10.70;75.02;100180.34;5091761;28;20037;-82
2023/10/25 01:06:17;;;;;;;0.20;0.20;;;;;;;10.68;75.23;100173.31;5087750;28;20542;-79
2023/10/25 01:08:43;;;;;;;0.20;0.20;;;;;;;10.65;75.04;100165.47;5080851;28;20108;-81
2023/10/25 01:11:11;;;;;;;0.20;0.20;;;;;;;10.65;75.39;100169.88;5080314;28;20032;-80
2023/10/25 01:13:37;;;;;;;0.15;0.15;;;;;;;10.62;74.98;100162.91;5089506;28;20035;-80
2023/10/25 01:16:06;;;;;;;0.20;0.20;;;;;;;10.64;75.01;100154.91;5088743;28;20029;-81
2023/10/25 01:18:33;;;;;;;0.10;0.10;;;;;;;10.62;75.53;100162.03;5087314;28;20107;-79
2023/10/25 01:20:59;;;;;;;0.20;0.20;;;;;;;10.61;75.29;100147.91;5091572;28;20032;-80
2023/10/25 01:23:25;;;;;;;2.92;1.23;;;;;;;10.60;75.21;100148.81;5089859;28;20028;-80
2023/10/25 01:25:51;;;;;;;0.30;0.30;;;;;;;10.59;75.33;100147.13;5088816;28;20032;-80
2023/10/25 01:28:17;;;;;;;0.22;0.22;;;;;;;10.59;75.43;100152.41;5098274;28;20415;-81
2023/10/25 01:30:43;;;;;;;0.20;0.20;;;;;;;10.59;75.62;100147.13;5094532;28;20043;-82
2023/10/25 01:33:09;;;;;;;0.10;0.10;;;;;;;10.57;75.49;100148.09;5086699;28;20031;-80
2023/10/25 01:35:36;;;;;;;0.10;0.10;;;;;;;10.57;75.34;100142.78;5090688;28;20036;-82
2023/10/25 01:38:02;;;;;;;0.10;0.10;;;;;;;10.56;75.25;100141.91;5087206;28;20082;-82
2023/10/25 01:40:29;;;;;;;0.17;0.17;;;;;;;10.56;75.48;100141.03;5097998;28;20054;-81
2023/10/25 01:42:55;;;;;;;0.20;0.20;;;;;;;10.55;75.51;100144.59;5097218;28;20021;-81
2023/10/25 01:45:23;;;;;;;0.15;0.15;;;;;;;10.52;76.13;100145.56;5073264;28;20028;-81
2023/10/25 01:47:49;;;;;;;0.20;0.20;;;;;;;10.52;75.89;100137.63;5076714;28;20494;-81
2023/10/25 01:50:16;;;;;;;0.17;0.17;;;;;;;10.55;75.69;100139.31;5090261;28;20032;-81
2023/10/25 01:52:42;;;;;;;0.20;0.20;;;;;;;10.55;75.61;100137.50;5096283;28;20058;-82
2023/10/25 01:55:09;;;;;;;0.20;0.20;;;;;;;10.56;75.96;100120.72;5085269;28;20036;-81
2023/10/25 01:57:35;;;;;;;0.63;0.63;;;;;;;10.56;75.78;100131.31;5092851;28;20036;-80
2023/10/25 02:00:03;;;;;;;0.10;0.10;;;;;;;10.56;75.65;100126.00;5086785;28;20032;-81
2023/10/25 02:02:29;;;;;;;0.10;0.10;;;;;;;10.56;75.75;100125.16;5091545;28;20241;-82
2023/10/25 02:04:55;;;;;;;0.10;0.10;;;;;;;10.55;75.97;100118.13;5096843;28;20075;-80
2023/10/25 02:07:21;;;;;;;0.10;0.10;;;;;;;10.52;76.09;100124.38;5090527;28;20012;-81
2023/10/25 02:09:47;;;;;;;0.10;0.10;;;;;;;10.49;75.98;100122.69;5090076;28;20044;-81
2023/10/25 02:12:13;;;;;;;0.20;0.20;;;;;;;10.47;75.39;100116.56;5098710;28;20020;-81
2023/10/25 02:14:39;;;;;;;0.20;0.20;;;;;;;10.45;75.79;100106.94;5084221;28;20032;-81
2023/10/25 02:17:05;;;;;;;0.10;0.10;;;;;;;10.44;75.47;100106.09;5084311;28;20054;-80
2023/10/25 02:19:32;;;;;;;0.20;0.20;;;;;;;10.42;75.82;100097.31;5081994;28;20043;-81
2023/10/25 02:21:59;;;;;;;0.10;0.10;;;;;;;10.40;75.30;100098.28;5081035;28;20088;-81
2023/10/25 02:24:26;;;;;;;0.10;0.10;;;;;;;10.38;75.47;100100.97;5091792;28;20596;-81
2023/10/25 02:26:52;;;;;;;0.20;0.20;;;;;;;10.36;75.53;100102.81;5087099;28;20024;-81
2023/10/25 02:29:18;;;;;;;0.10;0.10;;;;;;;10.33;75.35;100101.09;5091718;28;20060;-82
2023/10/25 02:31:45;;;;;;;0.10;0.10;;;;;;;10.33;75.55;100095.78;5085428;28;20080;-81
2023/10/25 02:34:11;;;;;;;0.43;0.43;;;;;;;10.30;75.59;100105.59;5086082;28;20048;-81
2023/10/25 02:36:37;;;;;;;0.25;0.25;;;;;;;10.29;75.56;100096.81;5082329;28;20105;-81
2023/10/25 02:39:03;;;;;;;0.20;0.20;;;;;;;10.26;75.85;100096.88;5086394;28;20032;-80
2023/10/25 02:41:30;;;;;;;0.10;0.10;;;;;;;10.25;75.87;100100.44;5082973;28;20025;-81
2023/10/25 02:43:58;;;;;;;0.10;0.10;;;;;;;10.27;75.54;100095.97;5084590;28;20028;-80
2023/10/25 02:46:24;;;;;;;0.13;0.13;;;;;;;10.27;75.90;100090.69;5083313;28;20028;-80
2023/10/25 02:48:52;;;;;;;1.40;0.85;;;;;;;10.27;76.08;100090.69;5082416;28;20447;-80
2023/10/25 02:51:18;;;;;;;0.13;0.13;;;;;;;10.25;75.94;100086.34;5082372;28;20036;-79
2023/10/25 02:53:44;;;;;;;0.20;0.20;;;;;;;10.28;75.65;100088.88;5077433;28;20451;-81
2023/10/25 02:56:10;;;;;;;0.20;0.20;;;;;;;10.28;75.98;100088.88;5079263;28;20028;-81
2023/10/25 02:58:37;;;;;;;0.10;0.10;;;;;;;10.28;76.08;100079.19;5082034;28;20032;-84
2023/10/25 03:01:03;;;;;;;0.10;0.10;;;;;;;10.28;75.86;100078.28;5080876;28;20062;-80
2023/10/25 03:03:31;;;;;;;2.72;1.33;;;;;;;10.26;76.08;100082.78;5079238;28;20449;-79
2023/10/25 03:05:57;;;;;;;0.10;0.10;;;;;;;10.25;75.96;100073.97;5084018;28;20111;-80
2023/10/25 03:08:25;;;;;;;0.17;0.17;;;;;;;10.23;75.86;100070.53;5077779;28;20501;-79
2023/10/25 03:10:51;;;;;;;0.10;0.10;;;;;;;10.24;76.02;100077.53;5090440;28;20499;-80
2023/10/25 03:13:17;;;;;;;0.10;0.10;;;;;;;10.23;76.16;100077.56;5087251;28;20032;-80
2023/10/25 03:15:43;;;;;;;0.10;0.10;;;;;;;10.24;76.17;100074.88;5088662;28;20036;-80
2023/10/25 03:18:09;;;;;;;0.20;0.20;;;;;;;10.23;75.58;100070.53;5083687;28;20047;-79
2023/10/25 03:20:35;;;;;;;0.10;0.10;;;;;;;10.23;76.00;100070.53;5083636;28;20035;-79
2023/10/25 03:23:02;;;;;;;0.40;0.40;;;;;;;10.23;75.99;100070.53;5089353;28;20390;-79
2023/10/25 03:25:28;;;;;;;0.20;0.20;;;;;;;10.24;75.95;100072.22;5082663;28;20514;-80
2023/10/25 03:27:54;;;;;;;0.10;0.10;;;;;;;10.25;76.02;100062.53;5087361;28;20064;-80
2023/10/25 03:30:20;;;;;;;0.20;0.20;;;;;;;10.26;76.26;100059.81;5074052;28;20036;-80
2023/10/25 03:32:46;;;;;;;0.20;0.20;;;;;;;10.28;75.83;100052.69;5084032;28;20032;-80
2023/10/25 03:35:13;;;;;;;1.13;1.05;;;;;;;10.28;76.05;100052.69;5080617;28;20078;-80
2023/10/25 03:37:40;;;;;;;0.20;0.20;;;;;;;10.28;76.00;100055.34;5081800;28;20036;-80
2023/10/25 03:40:09;;;;;;;0.20;0.20;;;;;;;10.29;76.14;100054.44;5078636;28;20123;-80
2023/10/25 03:42:36;;;;;;;0.10;0.10;;;;;;;10.28;76.10;100052.69;5088053;28;20115;-80
2023/10/25 03:45:03;;;;;;;0.10;0.10;;;;;;;10.28;76.05;100047.41;5079653;28;20029;-80
2023/10/25 03:47:30;;;;;;;0.10;0.10;;;;;;;10.28;76.19;100049.16;5082365;28;20038;-80
2023/10/25 03:49:57;;;;;;;0.10;0.10;;;;;;;10.26;75.62;100043.94;5080943;28;20064;-78
2023/10/25 03:52:23;;;;;;;0.10;0.10;;;;;;;10.25;75.79;100041.34;5078829;28;20048;-78
2023/10/25 03:54:49;;;;;;;0.10;0.10;;;;;;;10.24;75.79;100044.91;5075945;28;20111;-78
2023/10/25 03:57:15;;;;;;;0.20;0.20;;;;;;;10.22;76.08;100036.13;5082328;28;20031;-78
2023/10/25 03:59:41;;;;;;;0.47;0.47;;;;;;;10.19;75.76;100032.69;5085375;28;20142;-77
2023/10/25 04:02:07;;;;;;;0.32;0.32;;;;;;;10.21;76.12;100027.31;5088237;28;20042;-77
2023/10/25 04:04:33;;;;;;;0.10;0.10;;;;;;;10.20;75.93;100022.94;5077236;28;20514;-78
2023/10/25 04:06:59;;;;;;;0.10;0.10;;;;;;;10.20;75.92;100029.13;5085027;28;20059;-79
2023/10/25 04:09:25;;;;;;;0.25;0.25;;;;;;;10.22;76.07;100025.53;5088702;28;20032;-80
2023/10/25 04:11:51;;;;;;;0.10;0.10;;;;;;;10.25;76.01;100020.16;5081281;28;20064;-80
2023/10/25 04:14:17;;;;;;;0.13;0.13;;;;;;;10.25;76.22;100014.88;5089259;28;20031;-80
2023/10/25 04:16:44;;;;;;;0.20;0.20;;;;;;;10.26;75.98;100012.16;5082436;28;20036;-79
2023/10/25 04:19:10;;;;;;;0.10;0.10;;;;;;;10.31;76.47;100017.31;5084224;28;20028;-80
2023/10/25 04:21:36;;;;;;;0.17;0.17;;;;;;;10.35;76.27;100011.88;5089033;28;20036;-79
2023/10/25 04:24:02;;;;;;;0.10;0.10;;;;;;;10.38;75.95;100007.41;5087308;28;20025;-79
2023/10/25 04:26:29;;;;;;;0.13;0.13;;;;;;;10.44;76.13;100009.84;5085131;28;20046;-79
2023/10/25 04:28:55;;;;;;;0.10;0.10;;;;;;;10.49;76.73;100003.50;5088566;28;20081;-78
2023/10/25 04:31:21;;;;;;;0.10;0.10;;;;;;;10.54;76.48;100005.97;5091381;28;20120;-79
2023/10/25 04:33:47;;;;;;;0.10;0.10;;;;;;;10.60;76.42;100002.28;5090664;28;20116;-78
2023/10/25 04:36:13;;;;;;;0.10;0.10;;;;;;;10.64;76.29;99999.47;5090933;28;20069;-79
2023/10/25 04:38:40;;;;;;;0.47;0.47;;;;;;;10.68;76.79;100002.91;5084709;28;20056;-79
2023/10/25 04:41:06;;;;;;;0.10;0.10;;;;;;;10.72;76.40;100008.97;5095325;28;20028;-79
2023/10/25 04:43:32;;;;;;;0.10;0.10;;;;;;;10.76;76.39;99994.69;5089824;28;20056;-80
2023/10/25 04:45:59;;;;;;;0.20;0.20;;;;;;;10.79;76.36;99991.91;5087011;28;20032;-79
2023/10/25 04:48:25;;;;;;;0.20;0.20;;;;;;;10.80;76.78;99983.03;5079008;28;20031;-79
2023/10/25 04:50:51;;;;;;;0.10;0.10;;;;;;;10.83;76.38;99980.31;5073908;28;20075;-79
2023/10/25 04:53:17;;;;;;;0.10;0.10;;;;;;;10.83;76.70;99982.97;5071810;28;20067;-79
2023/10/25 04:55:46;;;;;;;0.10;0.10;;;;;;;10.89;76.71;99968.59;5090600;28;20119;-79
2023/10/25 04:58:12;;;;;;;0.20;0.20;;;;;;;10.87;76.67;99968.66;5081938;28;20046;-79
2023/10/25 05:00:38;;;;;;;0.10;0.10;;;;;;;10.89;76.39;99980.09;5080186;28;20036;-80
2023/10/25 05:03:10;;;;;;;0.17;0.17;;;;;;;10.89;76.75;99974.78;5081827;28;20032;-80
2023/10/25 05:05:37;;;;;;;0.22;0.22;;;;;;;10.90;76.36;99963.25;5075300;28;20043;-80
2023/10/25 05:08:04;;;;;;;0.10;0.10;;;;;;;10.90;76.80;99965.91;5092314;28;20028;-79
2023/10/25 05:10:30;;;;;;;0.10;0.10;;;;;;;10.92;76.41;99961.41;5092814;28;20033;-79
2023/10/25 05:12:57;;;;;;;0.10;0.10;;;;;;;10.93;76.68;99959.63;5086829;28;20092;-79
2023/10/25 05:15:25;;;;;;;0.10;0.10;;;;;;;10.96;76.12;99952.41;5085820;28;20033;-80
2023/10/25 05:17:51;;;;;;;0.15;0.15;;;;;;;10.97;76.28;99954.16;5090469;28;20123;-79
2023/10/25 05:20:18;;;;;;;0.20;0.20;;;;;;;10.99;76.87;99943.50;5084908;28;20098;-81
2023/10/25 05:22:50;;;;;;;0.10;0.10;;;;;;;11.02;76.79;99950.50;5086572;28;20032;-80
2023/10/25 05:25:18;;;;;;;0.73;0.73;;;;;;;11.02;76.12;99945.19;5089615;28;20534;-79
2023/10/25 05:27:44;;;;;;;3.70;0.73;;;;;;;11.02;76.21;99938.09;5081016;28;20029;-80
2023/10/25 05:30:14;;;;;;;0.10;0.10;;;;;;;11.06;76.78;99938.84;5074426;28;20028;-79
2023/10/25 05:32:47;;;;;;;0.10;0.10;;;;;;;11.09;76.95;99930.78;5090959;28;20054;-80
2023/10/25 05:35:14;;;;;;;0.52;0.40;;;;;;;11.08;76.73;99932.56;5082583;28;20096;-79
2023/10/25 05:37:41;;;;;;;0.10;0.10;;;;;;;11.08;76.84;99927.28;5089650;28;20028;-79
2023/10/25 05:40:08;;;;;;;0.10;0.10;;;;;;;11.15;76.56;99933.19;5087584;28;20035;-80
2023/10/25 05:42:46;;;;;;;0.10;0.10;;;;;;;11.22;76.74;99921.44;5088363;28;20067;-79
2023/10/25 05:45:12;;;;;;;1.85;0.68;;;;;;;11.19;77.05;99918.03;5077903;28;20401;-78
2023/10/25 05:47:38;;;;;;;0.30;0.30;;;;;;;11.24;76.88;99922.28;5077694;28;20032;-80
2023/10/25 05:50:05;;;;;;;0.15;0.15;;;;;;;11.24;76.61;99914.31;5080960;28;20443;-81
2023/10/25 05:52:32;;;;;;;0.10;0.10;;;;;;;11.30;76.65;99924.69;5070214;28;20028;-81
2023/10/25 05:54:58;;;;;;;0.10;0.10;;;;;;;11.27;76.78;99919.47;5068898;28;20039;-79
2023/10/25 05:57:25;;;;;;;0.20;0.20;;;;;;;11.32;76.86;99909.56;5076502;28;20080;-79
2023/10/25 05:59:51;;;;;;;0.10;0.10;;;;;;;11.37;76.38;99903.25;5085989;28;20082;-80
2023/10/25 06:02:22;;;;;;;1.05;1.05;;;;;;;11.39;76.84;99889.00;5074898;28;20047;-80
2023/10/25 06:04:49;;;;;;;0.20;0.20;;;;;;;11.43;76.46;99887.09;5079005;28;20036;-79
2023/10/25 06:07:16;;;;;;;0.20;0.20;;;;;;;11.48;76.92;99883.31;5080289;28;20099;-80
2023/10/25 06:09:42;;;;;;;0.20;0.20;;;;;;;11.49;77.00;99885.06;5077743;28;20033;-80
2023/10/25 06:12:10;;;;;;;0.20;0.20;;;;;;;11.52;76.93;99889.38;5078939;28;20063;-81
2023/10/25 06:14:37;;;;;;;0.20;0.20;;;;;;;11.54;77.03;99898.16;5077372;28;20132;-80
2023/10/25 06:17:03;;;;;;;0.30;0.30;;;;;;;11.56;76.63;99901.59;5083434;28;20035;-82
2023/10/25 06:19:30;;;;;;;0.90;0.90;;;;;;;11.59;77.02;99895.28;5074737;28;20037;-80
2023/10/25 06:21:56;;;;;;;0.20;0.20;;;;;;;11.61;77.27;99899.63;5073424;28;20033;-81
2023/10/25 06:24:23;;;;;;;2.60;2.40;;;;;;;11.63;77.17;99897.75;5076885;28;20021;-81
2023/10/25 06:26:49;;;;;;;2.10;1.95;;;;;;;11.64;76.60;99894.19;5064949;28;20028;-78
2023/10/25 06:29:15;;;;;;;0.10;0.10;;;;;;;11.65;76.80;99890.63;5078589;28;20107;-80
2023/10/25 06:31:41;;;;;;;0.10;0.10;;;;;;;11.68;76.59;99889.63;5069414;28;20040;-79
2023/10/25 06:34:07;;;;;;;0.10;0.10;;;;;;;11.68;76.88;99891.44;5075369;28;20035;-79
2023/10/25 06:36:35;;;;;;;0.10;0.10;;;;;;;11.72;76.97;99885.06;5078216;28;20024;-79
2023/10/25 06:39:04;;;;;;;0.10;0.10;;;;;;;11.71;76.50;99878.03;5075749;28;20061;-80
2023/10/25 06:41:32;;;;;;;0.20;0.20;;;;;;;11.70;76.61;99874.53;5072992;28;20059;-80
2023/10/25 06:43:58;;;;;;;0.10;0.10;;;;;;;11.73;76.55;99876.19;5077847;28;20510;-79
2023/10/25 06:46:24;;;;;;;0.63;0.63;;;;;;;11.72;76.74;99867.34;5078697;28;20020;-80
2023/10/25 06:48:52;;;;;;;0.10;0.10;;;;;;;11.73;76.40;99865.56;5076668;28;20031;-81
2023/10/25 06:51:19;;;;;;;0.20;0.20;;;;;;;11.75;76.35;99871.66;5076374;28;20067;-80
2023/10/25 06:53:46;;;;;;;0.17;0.17;;;;;;;11.74;76.83;99867.28;5074791;28;20115;-80
2023/10/25 06:56:13;;;;;;;0.10;0.10;;;;;;;11.71;76.44;99856.81;5076717;28;20418;-80
2023/10/25 06:58:40;;;;;;;0.10;0.10;;;;;;;11.69;76.67;99862.19;5074758;28;20029;-80
2023/10/25 07:01:07;;;;;;;0.10;0.10;;;;;;;11.69;76.69;99858.66;5075870;28;20405;-78
2023/10/25 07:03:34;;;;;;;0.10;0.10;;;;;;;11.70;76.72;99860.38;5077776;28;20506;-79
2023/10/25 07:06:03;;;;;;;0.10;0.10;;;;;;;11.73;76.51;99852.31;5071307;28;20036;-78
2023/10/25 07:08:30;;;;;;;0.10;0.10;;;;;;;11.73;76.16;99855.81;5075566;28;20479;-80
2023/10/25 07:10:56;;;;;;;0.10;0.10;;;;;;;11.74;76.58;99851.34;5069778;28;20498;-80
2023/10/25 07:13:30;;;;;;;0.30;0.30;;;;;;;11.76;76.57;99852.16;5075434;28;20025;-80
2023/10/25 07:15:57;;;;;;;0.25;0.25;;;;;;;11.75;76.20;99847.78;5076975;28;20040;-79
2023/10/25 07:18:23;;;;;;;0.20;0.20;;;;;;;11.76;76.43;99844.22;5068802;28;20138;-80
2023/10/25 07:20:50;;;;;;;0.35;0.35;;;;;;;11.75;76.22;99837.16;5071922;28;20036;-79
2023/10/25 07:23:17;;;;;;;0.10;0.10;;;;;;;11.78;76.40;99842.38;5070962;28;20103;-80
2023/10/25 07:25:44;;;;;;;0.20;0.20;;;;;;;11.75;76.43;99834.50;5070522;28;20029;-80
2023/10/25 07:28:11;;;;;;;1.02;0.60;;;;;;;11.77;76.25;99832.66;5068846;28;20497;-78
2023/10/25 07:30:37;;;;;;;0.10;0.10;;;;;;;11.79;76.67;99833.47;5072316;28;20037;-77
2023/10/25 07:33:03;;;;;;;0.10;0.10;;;;;;;11.76;76.35;99834.47;5073423;28;20103;-79
2023/10/25 07:35:29;;;;;;;0.10;0.10;;;;;;;11.79;76.65;99834.34;5071912;28;20033;-78
2023/10/25 07:37:55;;;;;;;0.10;0.10;;;;;;;11.79;76.55;99829.03;5074883;28;20078;-80
2023/10/25 07:40:22;;;;;;;0.10;0.10;;;;;;;11.84;77.04;99827.97;5069560;28;20487;-82
2023/10/25 07:42:48;;;;;;;0.90;0.30;;;;;;;11.81;76.58;99827.19;5077038;28;20028;-82
2023/10/25 07:45:14;;;;;;;0.25;0.25;;;;;;;11.84;76.54;99830.63;5060868;28;20036;-80
2023/10/25 07:47:40;;;;;;;0.10;0.10;;;;;;;11.86;76.74;99824.31;5071585;28;20047;-78
2023/10/25 07:50:07;;;;;;;0.10;0.10;;;;;;;11.91;76.84;99817.03;5073809;28;20036;-81
2023/10/25 07:52:36;;;;;;;0.52;0.52;;;;;;;11.95;76.56;99821.28;5073148;28;20404;-80
2023/10/25 07:55:04;;;;;;;0.10;0.10;;;;;;;11.97;77.31;99811.50;5072072;28;20036;-78
2023/10/25 07:57:33;;;;;;;0.63;0.63;;;;;;;12.01;76.89;99811.38;5080337;28;20150;-80
2023/10/25 07:59:59;;;;;;;0.10;0.10;;;;;;;12.04;76.54;99805.94;5080737;28;20525;-79
2023/10/25 08:02:25;;;;;;;0.30;0.30;;;;;;;12.07;77.03;99803.16;5078300;28;20032;-80
2023/10/25 08:04:51;;;;;;;0.10;0.10;;;;;;;12.09;76.58;99799.50;5078058;28;20054;-80
2023/10/25 08:07:17;;;;;;;0.43;0.43;;;;;;;12.11;76.92;99797.66;5082444;28;20017;-79
2023/10/25 08:09:46;;;;;;;0.20;0.20;;;;;;;12.14;76.55;99797.50;5080211;28;20032;-79
2023/10/25 08:12:12;;;;;;;1.08;0.88;;;;;;;12.18;76.56;99798.22;5081723;28;20103;-81
2023/10/25 08:14:38;;;;;;;0.10;0.10;;;;;;;12.17;76.74;99796.50;5076542;28;20043;-81
2023/10/25 08:17:04;;;;;;;0.10;0.10;;;;;;;12.18;76.57;99790.25;5073315;28;20035;-81
2023/10/25 08:19:31;;;;;;;0.30;0.30;;;;;;;12.22;77.05;99793.66;5074719;28;20017;-81
2023/10/25 08:21:58;;;;;;;0.45;0.45;;;;;;;12.23;76.79;99785.59;5078672;28;20067;-81
2023/10/25 08:24:25;;;;;;;0.13;0.13;;;;;;;12.24;76.15;99787.34;5077774;28;20021;-81
2023/10/25 08:26:53;;;;;;;0.10;0.10;;;;;;;12.25;76.86;99785.53;5076596;28;20041;-82
2023/10/25 08:29:19;;;;;;;0.10;0.10;;;;;;;12.26;76.79;99780.19;5076344;28;20032;-81
2023/10/25 08:31:46;;;;;;;0.43;0.43;;;;;;;12.27;76.55;99784.56;5080910;28;20515;-81
2023/10/25 08:34:13;;;;;;;0.57;0.57;;;;;;;12.30;76.26;99786.22;5076927;28;20020;-81
2023/10/25 08:36:40;;;;;;;0.10;0.10;;;;;;;12.33;76.65;99786.06;5077913;28;20037;-81
2023/10/25 08:39:06;;;;;;;0.10;0.10;;;;;;;12.35;76.75;99783.34;5081891;28;20502;-79
2023/10/25 08:41:34;;;;;;;0.10;0.10;;;;;;;12.39;76.12;99782.28;5081457;28;20025;-80
2023/10/25 08:44:00;;;;;;;0.20;0.20;;;;;;;12.39;76.55;99784.94;5081087;28;20522;-80
2023/10/25 08:46:30;;;;;;;0.10;0.10;;;;;;;12.40;76.19;99778.69;5079454;28;20028;-80
2023/10/25 08:48:57;;;;;;;0.20;0.20;;;;;;;12.40;76.18;99773.38;5081927;28;20029;-80
2023/10/25 08:51:24;;;;;;;0.20;0.20;;;;;;;12.38;76.74;99767.28;5080668;28;20089;-80
2023/10/25 08:53:52;;;;;;;0.10;0.10;;;;;;;12.46;76.62;99770.44;5073374;28;20483;-81
2023/10/25 08:56:18;;;;;;;0.43;0.43;;;;;;;12.48;76.80;99767.72;5082367;28;20024;-79
2023/10/25 08:58:44;;;;;;;0.10;0.10;;;;;;;12.52;76.32;99770.16;5085114;28;20484;-79
2023/10/25 09:01:11;;;;;;;0.10;0.10;;;;;;;12.56;77.02;99760.25;5085835;28;20028;-78
2023/10/25 09:03:39;;;;;;;0.20;0.20;;;;;;;12.64;76.85;99759.94;5084553;28;20043;-79
2023/10/25 09:06:10;;;;;;;0.25;0.25;;;;;;;12.68;76.52;99759.69;5082551;28;20044;-80
2023/10/25 09:08:37;;;;;;;0.20;0.20;;;;;;;12.71;76.44;99745.41;5081277;28;20029;-79
2023/10/25 09:11:08;;;;;;;0.10;0.10;;;;;;;12.73;76.47;99747.06;5082408;28;20281;-79
2023/10/25 09:13:37;;;;;;;0.10;0.10;;;;;;;12.75;76.37;99741.69;5080986;28;20035;-80
2023/10/25 09:16:06;;;;;;;0.10;0.10;;;;;;;12.77;76.90;99737.13;5080457;28;20038;-79
2023/10/25 09:18:33;;;;;;;0.10;0.10;;;;;;;12.78;76.97;99744.19;5081347;28;20327;-79
2023/10/25 09:21:01;;;;;;;1.02;0.90;;;;;;;12.77;76.82;99734.47;5082100;28;20487;-80
2023/10/25 09:23:28;;;;;;;0.20;0.20;;;;;;;12.79;76.93;99737.94;5082646;28;20024;-80
2023/10/25 09:25:55;;;;;;;0.10;0.10;;;;;;;12.78;76.35;99729.13;5077474;28;20123;-79
2023/10/25 09:28:30;;;;;;;0.10;0.10;;;;;;;12.79;76.77;99732.63;5076882;28;20017;-78
2023/10/25 09:30:59;;;;;;;0.40;0.40;;;;;;;12.81;76.65;99721.91;5082185;28;20122;-78
2023/10/25 09:33:28;;;;;;;0.10;0.10;;;;;;;12.79;76.43;99716.69;5075024;28;20041;-79
2023/10/25 09:35:56;;;;;;;0.10;0.10;;;;;;;12.75;76.92;99712.44;5079470;28;20032;-80
2023/10/25 09:38:24;;;;;;;0.10;0.10;;;;;;;12.73;76.58;99711.66;5074893;28;20033;-79
2023/10/25 09:40:51;;;;;;;0.10;0.10;;;;;;;12.75;76.50;99715.09;5078161;28;20028;-81
2023/10/25 09:43:20;;;;;;;0.10;0.10;;;;;;;12.75;76.80;99707.97;5079999;28;20036;-82
2023/10/25 09:45:56;;;;;;;0.15;0.15;;;;;;;12.82;76.59;99707.69;5074132;28;20036;-81
2023/10/25 09:48:23;;;;;;;0.20;0.20;;;;;;;12.78;76.69;99701.66;5076845;28;20482;-79
2023/10/25 09:51:12;;;;;;;0.28;0.28;;;;;;;12.89;77.11;99691.38;5073573;28;20049;-79
2023/10/25 09:53:49;;;;;;;0.10;0.10;;;;;;;12.84;76.75;99687.22;5075932;28;20098;-81
2023/10/25 09:56:16;;;;;;;0.20;0.20;;;;;;;12.82;77.15;99678.44;5072559;28;20032;-78
2023/10/25 09:58:44;;;;;;;0.20;0.20;;;;;;;12.82;77.02;99674.00;5075512;28;20074;-81
2023/10/25 10:01:11;;;;;;;0.47;0.47;;;;;;;12.81;76.64;99672.28;5074588;28;20024;-82
2023/10/25 10:03:52;;;;;;;0.10;0.10;;;;;;;12.85;76.81;99675.66;5076695;28;20024;-79
2023/10/25 10:09:31;;;;;;;0.20;0.20;;;;;;;12.84;76.85;99679.25;5094246;27;20391;-82
2023/10/25 10:12:04;;;;;;;0.20;0.20;;;;;;;12.77;77.03;99676.88;5094802;28;20032;-81
2023/10/25 10:17:10;;;;;;;0.10;0.10;;;;;;;12.78;76.94;99664.44;5093878;27;20399;-84
2023/10/25 10:19:39;;;;;;;0.10;0.10;;;;;;;12.82;77.06;99666.00;5090394;28;20020;-88
2023/10/25 10:22:07;;;;;;;0.60;0.60;;;;;;;12.79;77.55;99660.84;5093643;28;20107;-86
2023/10/25 10:24:52;;;;;;;1.38;1.25;;;;;;;12.88;77.46;99655.09;5087916;28;20043;-85
2023/10/25 10:27:20;;;;;;;0.20;0.20;;;;;;;12.81;77.39;99651.03;5083558;28;20499;-84
2023/10/25 10:29:47;;;;;;;0.10;0.10;;;;;;;12.84;77.43;99647.34;5086043;28;20032;-85
2023/10/25 10:32:14;;;;;;;0.10;0.10;;;;;;;12.82;77.17;99644.75;5088452;28;20111;-84
2023/10/25 10:34:56;;;;;;;0.88;0.88;;;;;;;12.90;77.25;99647.06;5093233;28;20020;-84
2023/10/25 10:37:25;;;;;;;0.17;0.17;;;;;;;12.85;77.45;99639.31;5090612;28;20487;-84
2023/10/25 10:42:35;;;;;;;0.15;0.15;;;;;;;12.84;77.15;99637.56;5098912;27;20403;-84
2023/10/25 10:45:05;;;;;;;0.10;0.10;;;;;;;12.88;77.76;99635.63;5051786;28;20483;-83
2023/10/25 10:50:28;;;;;;;0.10;0.10;;;;;;;12.87;77.42;99628.59;5090037;27;20538;-83
2023/10/25 10:52:54;;;;;;;0.10;0.10;;;;;;;12.88;77.35;99614.34;5087658;28;20495;-83
2023/10/25 10:55:24;;;;;;;0.20;0.20;;;;;;;12.89;77.53;99608.97;5087984;28;20044;-84
2023/10/25 10:57:50;;;;;;;2.17;1.95;;;;;;;12.86;77.62;99603.81;5086397;28;20027;-84
2023/10/25 11:00:18;;;;;;;0.10;0.10;;;;;;;12.87;77.61;99605.53;5084752;28;20456;-84
2023/10/25 11:02:46;;;;;;;0.10;0.10;;;;;;;12.84;77.87;99600.34;5087867;28;20372;-84
2023/10/25 11:05:14;;;;;;;0.30;0.30;;;;;;;12.86;77.55;99586.97;5086492;28;20499;-84
2023/10/25 11:07:41;;;;;;;0.73;0.73;;;;;;;12.87;77.43;99584.28;5089388;28;20514;-84
2023/10/25 11:10:08;;;;;;;0.43;0.43;;;;;;;12.89;77.54;99587.69;5088429;28;20023;-85
2023/10/25 11:12:34;;;;;;;0.10;0.10;;;;;;;12.90;77.34;99586.75;5088374;28;20028;-85
2023/10/25 11:15:04;;;;;;;1.00;1.00;;;;;;;12.95;77.66;99582.06;5086863;28;20062;-84
2023/10/25 11:17:31;;;;;;;0.10;0.10;;;;;;;13.00;78.08;99583.66;5085057;28;20051;-85
2023/10/25 11:19:57;;;;;;;0.10;0.10;;;;;;;13.00;77.91;99576.53;5086046;28;20069;-85
2023/10/25 11:22:23;;;;;;;0.10;0.10;;;;;;;13.06;78.09;99575.34;5086967;28;20093;-86
2023/10/25 11:24:51;;;;;;;0.10;0.10;;;;;;;13.12;78.05;99569.72;5088023;28;20048;-85
2023/10/25 11:27:18;;;;;;;0.10;0.10;;;;;;;13.18;78.29;99560.56;5082457;28;20411;-85
2023/10/25 11:29:45;;;;;;;0.10;0.10;;;;;;;13.24;78.12;99557.59;5085516;28;20028;-85
2023/10/25 11:32:12;;;;;;;0.10;0.10;;;;;;;13.29;78.34;99552.06;5089523;28;20092;-86
2023/10/25 11:34:42;;;;;;;0.10;0.10;;;;;;;13.36;78.21;99545.47;5088212;28;20023;-85
2023/10/25 11:37:08;;;;;;;0.20;0.20;;;;;;;13.39;78.22;99545.34;5088890;28;20185;-85
2023/10/25 11:39:55;;;;;;;0.10;0.10;;;;;;;13.56;78.23;99539.97;5089174;28;20027;-88
2023/10/25 11:42:21;;;;;;;0.10;0.10;;;;;;;13.47;78.18;99537.81;5088697;28;20150;-84
2023/10/25 11:44:47;;;;;;;0.10;0.10;;;;;;;13.47;77.97;99534.28;5088992;28;20028;-83